createdAt,value
2023-04-27T00:01:13.370Z,4.51
2023-04-27T00:03:41.441Z,4.52
2023-04-27T00:06:09.252Z,4.51
2023-04-27T00:08:36.070Z,4.49
2023-04-27T00:11:02.879Z,4.47
2023-04-27T00:13:29.571Z,4.49
2023-04-27T00:15:56.238Z,4.45
2023-04-27T00:18:22.975Z,4.41
2023-04-27T00:20:50.043Z,4.38
2023-04-27T00:23:16.846Z,4.35
2023-04-27T00:25:43.475Z,4.30
2023-04-27T00:28:10.117Z,4.31
2023-04-27T00:30:36.890Z,4.30
2023-04-27T00:33:03.648Z,4.28
2023-04-27T00:35:30.561Z,4.30
2023-04-27T00:37:57.193Z,4.31
2023-04-27T00:40:23.854Z,4.30
2023-04-27T00:42:50.454Z,4.35
2023-04-27T00:45:17.227Z,4.39
2023-04-27T00:47:44.894Z,4.41
2023-04-27T00:50:12.226Z,4.44
2023-04-27T00:52:39.856Z,4.44
2023-04-27T00:55:07.299Z,4.47
2023-04-27T00:57:34.326Z,4.48
2023-04-27T01:00:02.267Z,4.46
2023-04-27T01:02:30.149Z,4.45
2023-04-27T01:04:57.237Z,4.44
2023-04-27T01:07:27.269Z,4.40
2023-04-27T01:09:54.074Z,4.38
2023-04-27T01:12:21.080Z,4.36
2023-04-27T01:14:47.713Z,4.34
2023-04-27T01:17:14.398Z,4.30
2023-04-27T01:19:41.277Z,4.26
2023-04-27T01:22:08.071Z,4.24
2023-04-27T01:24:34.721Z,4.21
2023-04-27T01:27:02.661Z,4.16
2023-04-27T01:29:29.385Z,4.12
2023-04-27T01:31:56.310Z,4.08
2023-04-27T01:34:22.997Z,4.06
2023-04-27T01:36:49.674Z,3.99
2023-04-27T01:39:16.611Z,3.92
2023-04-27T01:41:43.240Z,3.89
2023-04-27T01:44:09.884Z,3.86
2023-04-27T01:46:36.533Z,3.82
2023-04-27T01:49:03.623Z,3.75
2023-04-27T01:51:30.980Z,3.78
2023-04-27T01:53:57.647Z,3.73
2023-04-27T01:56:24.573Z,3.71
2023-04-27T01:58:53.110Z,3.70
2023-04-27T02:01:19.794Z,3.68
2023-04-27T02:03:46.760Z,3.63
2023-04-27T02:06:13.723Z,3.61
2023-04-27T02:08:40.359Z,3.59
2023-04-27T02:11:07.001Z,3.57
2023-04-27T02:13:33.634Z,3.55
2023-04-27T02:16:02.227Z,3.56
2023-04-27T02:18:29.008Z,3.57
2023-04-27T02:20:56.114Z,3.57
2023-04-27T02:23:22.708Z,3.54
2023-04-27T02:25:49.353Z,3.52
2023-04-27T02:28:16.254Z,3.49
2023-04-27T02:30:43.251Z,3.48
2023-04-27T02:33:10.068Z,3.49
2023-04-27T02:35:36.814Z,3.47
2023-04-27T02:38:03.437Z,3.45
2023-04-27T02:40:30.045Z,3.41
2023-04-27T02:42:56.695Z,3.40
2023-04-27T02:45:23.357Z,3.38
2023-04-27T02:47:51.067Z,3.37
2023-04-27T02:50:17.877Z,3.34
2023-04-27T02:52:44.490Z,3.32
2023-04-27T02:55:11.566Z,3.33
2023-04-27T02:57:38.284Z,3.33
2023-04-27T03:00:07.581Z,3.31
2023-04-27T03:02:34.363Z,3.32
2023-04-27T03:05:01.564Z,3.30
2023-04-27T03:07:28.185Z,3.29
2023-04-27T03:09:54.794Z,3.27
2023-04-27T03:12:21.413Z,3.25
2023-04-27T03:14:48.017Z,3.25
2023-04-27T03:17:14.626Z,3.26
2023-04-27T03:19:41.303Z,3.26
2023-04-27T03:22:07.925Z,3.24
2023-04-27T03:24:34.998Z,3.26
2023-04-27T03:27:03.442Z,3.28
2023-04-27T03:29:30.181Z,3.29
2023-04-27T03:31:57.531Z,3.28
2023-04-27T03:34:24.507Z,3.24
2023-04-27T03:36:51.249Z,3.21
2023-04-27T03:39:17.881Z,3.20
2023-04-27T03:41:44.546Z,3.21
2023-04-27T03:44:11.160Z,3.22
2023-04-27T03:46:37.775Z,3.23
2023-04-27T03:49:04.465Z,3.25
2023-04-27T03:51:34.620Z,3.26
2023-04-27T03:54:01.468Z,3.28
2023-04-27T03:56:28.114Z,3.30
2023-04-27T03:58:54.761Z,3.32
2023-04-27T04:01:22.014Z,3.36
2023-04-27T04:03:48.955Z,3.36
2023-04-27T04:06:15.806Z,3.39
2023-04-27T04:08:42.617Z,3.44
2023-04-27T04:11:09.254Z,3.45
2023-04-27T04:13:36.592Z,3.46
2023-04-27T04:16:08.729Z,3.47
2023-04-27T04:18:36.641Z,3.50
2023-04-27T04:21:03.799Z,3.52
2023-04-27T04:23:30.540Z,3.53
2023-04-27T04:25:57.754Z,3.56
2023-04-27T04:28:25.216Z,3.62
2023-04-27T04:30:52.421Z,3.64
2023-04-27T04:33:19.554Z,3.67
2023-04-27T04:35:47.083Z,3.71
2023-04-27T04:38:14.183Z,3.74
2023-04-27T04:40:44.524Z,3.79
2023-04-27T04:43:13.548Z,3.85
2023-04-27T04:45:40.278Z,3.88
2023-04-27T04:48:06.956Z,3.89
2023-04-27T04:50:33.674Z,3.91
2023-04-27T04:53:00.312Z,3.94
2023-04-27T04:55:28.410Z,3.98
2023-04-27T04:57:55.109Z,3.96
2023-04-27T05:00:22.512Z,4.01
2023-04-27T05:02:49.579Z,4.04
2023-04-27T05:05:16.730Z,4.09
2023-04-27T05:07:43.451Z,4.12
2023-04-27T05:10:10.319Z,4.14
2023-04-27T05:12:37.073Z,4.20
2023-04-27T05:15:05.386Z,4.23
2023-04-27T05:17:32.186Z,4.28
2023-04-27T05:19:59.226Z,4.35
2023-04-27T05:22:25.956Z,4.44
2023-04-27T05:24:52.598Z,4.47
2023-04-27T05:27:19.253Z,4.51
2023-04-27T05:29:45.851Z,4.61
2023-04-27T05:32:12.542Z,4.69
2023-04-27T05:34:39.256Z,4.71
2023-04-27T05:37:05.889Z,4.71
2023-04-27T05:39:32.944Z,4.78
2023-04-27T05:41:59.576Z,4.86
2023-04-27T05:44:28.559Z,4.90
2023-04-27T05:46:56.342Z,4.92
2023-04-27T05:49:23.507Z,4.98
2023-04-27T05:51:50.323Z,5.05
2023-04-27T05:54:16.979Z,5.14
2023-04-27T05:56:43.671Z,5.21
2023-04-27T05:59:10.672Z,5.25
2023-04-27T06:01:37.323Z,5.26
2023-04-27T06:04:04.296Z,5.30
2023-04-27T06:06:32.976Z,5.30
2023-04-27T06:08:59.699Z,5.28
2023-04-27T06:11:26.865Z,5.34
2023-04-27T06:13:53.500Z,5.41
2023-04-27T06:16:21.164Z,5.47
2023-04-27T06:18:50.108Z,5.55
2023-04-27T06:21:17.529Z,5.55
2023-04-27T06:23:44.223Z,5.58
2023-04-27T06:26:11.500Z,5.64
2023-04-27T06:28:38.486Z,5.72
2023-04-27T06:31:06.289Z,5.72
2023-04-27T06:33:33.579Z,5.75
2023-04-27T06:36:01.304Z,5.84
2023-04-27T06:38:28.334Z,5.93
2023-04-27T06:40:55.088Z,5.99
2023-04-27T06:43:21.926Z,6.01
2023-04-27T06:45:48.671Z,6.02
2023-04-27T06:48:15.525Z,6.02
2023-04-27T06:50:42.202Z,6.08
2023-04-27T06:53:09.089Z,6.08
2023-04-27T06:55:36.135Z,6.16
2023-04-27T06:58:03.535Z,6.26
2023-04-27T07:00:30.938Z,6.32
2023-04-27T07:02:57.762Z,6.39
2023-04-27T07:05:24.473Z,6.43
2023-04-27T07:07:51.213Z,6.43
2023-04-27T07:10:17.970Z,6.46
2023-04-27T07:12:44.681Z,6.51
2023-04-27T07:15:11.490Z,6.61
2023-04-27T07:17:38.371Z,6.74
2023-04-27T07:20:06.466Z,6.82
2023-04-27T07:22:33.570Z,6.86
2023-04-27T07:25:00.262Z,6.91
2023-04-27T07:27:27.508Z,6.86
2023-04-27T07:29:54.748Z,6.91
2023-04-27T07:32:22.095Z,6.90
2023-04-27T07:34:53.653Z,6.89
2023-04-27T07:37:21.435Z,6.93
2023-04-27T07:39:50.458Z,6.97
2023-04-27T07:42:17.185Z,6.99
2023-04-27T07:44:44.050Z,6.99
2023-04-27T07:47:10.815Z,6.99
2023-04-27T07:49:38.374Z,7.09
2023-04-27T07:52:05.338Z,7.14
2023-04-27T07:54:32.083Z,7.15
2023-04-27T07:56:58.718Z,7.27
2023-04-27T07:59:29.317Z,7.49
2023-04-27T08:02:07.135Z,7.71
2023-04-27T08:04:42.827Z,7.77
2023-04-27T08:07:10.585Z,7.71
2023-04-27T08:09:37.677Z,7.69
2023-04-27T08:12:04.593Z,7.72
2023-04-27T08:14:31.197Z,7.69
2023-04-27T08:16:57.980Z,7.67
2023-04-27T08:19:24.701Z,7.71
2023-04-27T08:21:51.412Z,7.79
2023-04-27T08:24:18.040Z,7.93
2023-04-27T08:26:44.732Z,8.12
2023-04-27T08:29:23.607Z,8.28
2023-04-27T08:31:55.712Z,8.35
2023-04-27T08:34:23.182Z,8.42
2023-04-27T08:36:49.804Z,8.50
2023-04-27T08:39:18.212Z,8.54
2023-04-27T08:41:45.342Z,8.59
2023-04-27T08:44:12.261Z,8.59
2023-04-27T08:46:39.519Z,8.61
2023-04-27T08:49:10.510Z,8.66
2023-04-27T08:51:37.315Z,8.79
2023-04-27T08:54:04.033Z,8.87
2023-04-27T08:56:30.958Z,8.85
2023-04-27T08:59:00.706Z,8.80
2023-04-27T09:01:27.729Z,8.76
2023-04-27T09:04:00.052Z,8.62
2023-04-27T09:06:34.539Z,8.43
2023-04-27T09:09:02.445Z,8.31
2023-04-27T09:11:31.549Z,8.22
2023-04-27T09:14:00.215Z,8.17
2023-04-27T09:16:29.177Z,8.08
2023-04-27T09:18:57.338Z,8.03
2023-04-27T09:21:28.595Z,8.13
2023-04-27T09:23:56.310Z,8.29
2023-04-27T09:26:28.088Z,8.32
2023-04-27T09:28:58.750Z,8.36
2023-04-27T09:31:36.068Z,8.46
2023-04-27T09:34:04.614Z,8.56
2023-04-27T09:36:32.682Z,8.68
2023-04-27T09:39:04.463Z,8.73
2023-04-27T09:41:35.570Z,8.83
2023-04-27T09:44:03.351Z,9.04
2023-04-27T09:46:33.743Z,9.14
2023-04-27T09:49:04.392Z,9.19
2023-04-27T09:51:31.894Z,9.26
2023-04-27T09:54:01.761Z,9.35
2023-04-27T09:56:37.691Z,9.36
2023-04-27T09:59:26.902Z,9.18
2023-04-27T10:02:07.373Z,8.85
2023-04-27T10:05:21.865Z,8.49
2023-04-27T10:07:49.580Z,8.30
2023-04-27T10:10:20.649Z,8.21
2023-04-27T10:13:02.542Z,8.11
2023-04-27T10:15:30.191Z,7.93
2023-04-27T10:18:04.883Z,7.79
2023-04-27T10:20:33.852Z,7.63
2023-04-27T10:23:00.948Z,7.43
2023-04-27T10:25:38.644Z,7.24
2023-04-27T10:28:08.071Z,7.15
2023-04-27T10:30:39.712Z,7.15
2023-04-27T10:33:09.568Z,7.21
2023-04-27T10:35:41.681Z,7.36
2023-04-27T10:38:26.875Z,7.55
2023-04-27T10:41:02.302Z,7.72
2023-04-27T10:43:31.279Z,7.79
2023-04-27T10:46:12.015Z,7.89
2023-04-27T10:48:43.535Z,8.10
2023-04-27T10:51:15.659Z,8.37
2023-04-27T10:53:42.481Z,8.66
2023-04-27T10:56:09.165Z,8.92
2023-04-27T11:01:08.652Z,9.19
2023-04-27T11:03:36.442Z,9.23
2023-04-27T11:06:05.201Z,9.21
2023-04-27T11:08:34.014Z,9.24
2023-04-27T11:11:01.802Z,9.20
2023-04-27T11:13:28.792Z,9.24
2023-04-27T11:16:00.379Z,9.26
2023-04-27T11:18:31.854Z,9.23
2023-04-27T11:21:10.598Z,9.24
2023-04-27T11:23:38.542Z,9.15
2023-04-27T11:26:18.417Z,8.88
2023-04-27T11:28:57.369Z,8.70
2023-04-27T11:31:24.122Z,8.58
2023-04-27T11:33:51.822Z,8.58
2023-04-27T11:36:23.602Z,8.68
2023-04-27T11:38:50.274Z,8.62
2023-04-27T11:41:17.747Z,8.57
2023-04-27T11:43:51.355Z,8.64
2023-04-27T11:46:22.332Z,8.73
2023-04-27T11:48:49.348Z,8.70
2023-04-27T11:51:16.069Z,8.65
2023-04-27T11:53:48.277Z,8.67
2023-04-27T11:56:14.901Z,8.77
2023-04-27T11:58:42.571Z,8.77
2023-04-27T12:01:10.589Z,8.60
2023-04-27T12:03:37.817Z,8.33
2023-04-27T12:06:21.448Z,8.16
2023-04-27T12:08:51.533Z,7.95
2023-04-27T12:11:18.720Z,7.85
2023-04-27T12:13:45.389Z,7.69
2023-04-27T12:16:12.327Z,7.59
2023-04-27T12:18:38.977Z,7.55
2023-04-27T12:21:08.540Z,7.52
2023-04-27T12:23:35.330Z,7.46
2023-04-27T12:26:02.108Z,7.35
2023-04-27T12:28:28.858Z,7.27
2023-04-27T12:30:55.490Z,7.21
2023-04-27T12:33:22.494Z,7.26
2023-04-27T12:35:49.158Z,7.49
2023-04-27T12:38:15.933Z,7.77
2023-04-27T12:40:42.636Z,8.06
2023-04-27T12:43:09.879Z,8.34
2023-04-27T12:45:36.650Z,8.54
2023-04-27T12:48:04.416Z,8.63
2023-04-27T12:50:32.578Z,8.60
2023-04-27T12:53:00.225Z,8.63
2023-04-27T12:55:33.763Z,8.79
2023-04-27T12:58:01.592Z,8.94
2023-04-27T13:00:29.862Z,9.04
2023-04-27T13:02:57.407Z,9.11
2023-04-27T13:05:24.474Z,9.01
2023-04-27T13:07:51.134Z,8.89
2023-04-27T13:10:17.831Z,8.72
2023-04-27T13:12:44.557Z,8.55
2023-04-27T13:15:11.403Z,8.50
2023-04-27T13:17:38.200Z,8.50
2023-04-27T13:20:06.546Z,8.54
2023-04-27T13:22:33.319Z,8.64
2023-04-27T13:25:00.119Z,8.71
2023-04-27T13:27:28.540Z,8.84
2023-04-27T13:29:55.288Z,8.87
2023-04-27T13:32:22.564Z,8.86
2023-04-27T13:34:49.484Z,8.88
2023-04-27T13:37:16.670Z,8.86
2023-04-27T13:39:43.298Z,8.85
2023-04-27T13:42:10.171Z,8.80
2023-04-27T13:44:36.835Z,8.75
2023-04-27T13:47:03.642Z,8.75
2023-04-27T13:49:30.386Z,8.68
2023-04-27T13:51:57.093Z,8.49
2023-04-27T13:54:23.946Z,8.23
2023-04-27T13:56:50.549Z,7.76
2023-04-27T13:59:17.541Z,7.38
2023-04-27T14:01:44.197Z,7.13
2023-04-27T14:04:11.115Z,6.91
2023-04-27T14:06:37.841Z,6.75
2023-04-27T14:09:04.862Z,6.59
2023-04-27T14:11:35.459Z,6.47
2023-04-27T14:14:08.953Z,6.25
2023-04-27T14:16:35.781Z,6.02
2023-04-27T14:19:02.482Z,5.68
2023-04-27T14:21:29.401Z,5.45
2023-04-27T14:23:56.204Z,5.44
2023-04-27T14:26:22.969Z,5.54
2023-04-27T14:28:49.601Z,5.73
2023-04-27T14:31:16.237Z,5.82
2023-04-27T14:33:42.830Z,5.91
2023-04-27T14:36:09.632Z,6.24
2023-04-27T14:38:36.226Z,6.59
2023-04-27T14:41:05.870Z,6.97
2023-04-27T14:43:32.522Z,7.38
2023-04-27T14:46:08.099Z,7.81
2023-04-27T14:48:46.919Z,8.31
2023-04-27T14:51:14.650Z,8.70
2023-04-27T14:53:41.346Z,9.02
2023-04-27T14:56:08.367Z,9.37
2023-04-27T14:58:35.029Z,9.66
2023-04-27T15:01:02.049Z,9.93
2023-04-27T15:03:28.881Z,10.15
2023-04-27T15:05:55.978Z,10.40
2023-04-27T15:08:22.689Z,10.59
2023-04-27T15:10:49.328Z,10.75
2023-04-27T15:13:16.160Z,10.71
2023-04-27T15:15:46.072Z,10.71
2023-04-27T15:18:12.853Z,10.73
2023-04-27T15:20:39.488Z,10.73
2023-04-27T15:23:06.299Z,10.76
2023-04-27T15:25:32.920Z,10.81
2023-04-27T15:28:01.265Z,10.86
2023-04-27T15:30:27.876Z,10.81
2023-04-27T15:32:54.862Z,10.66
2023-04-27T15:35:21.487Z,10.60
2023-04-27T15:37:48.331Z,10.52
2023-04-27T15:40:15.079Z,10.50
2023-04-27T15:42:41.686Z,10.49
2023-04-27T15:45:09.988Z,10.38
2023-04-27T15:47:36.957Z,10.20
2023-04-27T15:50:03.856Z,9.72
2023-04-27T15:52:30.526Z,9.27
2023-04-27T15:54:57.307Z,8.91
2023-04-27T15:57:23.934Z,8.61
2023-04-27T15:59:50.772Z,8.36
2023-04-27T16:02:17.813Z,8.04
2023-04-27T16:04:44.617Z,7.70
2023-04-27T16:07:11.462Z,7.59
2023-04-27T16:09:38.108Z,7.76
2023-04-27T16:12:05.122Z,7.93
2023-04-27T16:14:31.774Z,8.06
2023-04-27T16:17:02.444Z,8.12
2023-04-27T16:19:29.233Z,8.07
2023-04-27T16:21:55.991Z,8.10
2023-04-27T16:24:22.715Z,8.16
2023-04-27T16:26:49.401Z,8.07
2023-04-27T16:29:16.419Z,7.94
2023-04-27T16:31:44.793Z,7.81
2023-04-27T16:34:11.500Z,7.74
2023-04-27T16:36:38.118Z,7.69
2023-04-27T16:39:05.221Z,7.59
2023-04-27T16:41:32.035Z,7.47
2023-04-27T16:43:58.870Z,7.45
2023-04-27T16:46:25.597Z,7.41
2023-04-27T16:48:52.247Z,7.42
2023-04-27T16:51:19.060Z,7.53
2023-04-27T16:53:46.052Z,7.65
2023-04-27T16:56:14.146Z,7.71
2023-04-27T16:58:41.131Z,7.76
2023-04-27T17:01:07.935Z,7.77
2023-04-27T17:03:36.179Z,7.72
2023-04-27T17:06:03.478Z,7.77
2023-04-27T17:08:30.201Z,7.80
2023-04-27T17:10:56.900Z,7.84
2023-04-27T17:13:23.542Z,7.88
2023-04-27T17:15:50.616Z,7.95
2023-04-27T17:18:17.619Z,8.02
2023-04-27T17:20:44.423Z,8.08
2023-04-27T17:23:11.087Z,8.09
2023-04-27T17:25:37.696Z,8.10
2023-04-27T17:28:04.399Z,8.07
2023-04-27T17:30:31.112Z,8.05
2023-04-27T17:32:57.904Z,8.02
2023-04-27T17:35:24.757Z,8.02
2023-04-27T17:37:52.200Z,8.04
2023-04-27T17:40:20.996Z,8.06
2023-04-27T17:42:47.812Z,8.08
2023-04-27T17:45:14.888Z,8.06
2023-04-27T17:47:41.794Z,8.01
2023-04-27T17:50:09.213Z,7.87
2023-04-27T17:52:35.859Z,7.71
2023-04-27T17:55:02.983Z,7.60
2023-04-27T17:57:29.649Z,7.47
2023-04-27T17:59:56.343Z,7.40
2023-04-27T18:02:23.434Z,7.35
2023-04-27T18:04:50.098Z,7.26
2023-04-27T18:07:18.708Z,7.18
2023-04-27T18:09:45.764Z,7.11
2023-04-27T18:12:12.603Z,7.06
2023-04-27T18:14:39.442Z,7.10
2023-04-27T18:17:06.356Z,7.11
2023-04-27T18:19:33.006Z,7.15
2023-04-27T18:21:59.689Z,7.19
2023-04-27T18:24:26.428Z,7.20
2023-04-27T18:26:53.050Z,7.23
2023-04-27T18:29:19.666Z,7.28
2023-04-27T18:31:46.414Z,7.31
2023-04-27T18:34:14.409Z,7.33
2023-04-27T18:36:41.214Z,7.28
2023-04-27T18:39:07.880Z,7.22
2023-04-27T18:41:34.649Z,7.16
2023-04-27T18:44:05.818Z,7.13
2023-04-27T18:46:32.957Z,7.13
2023-04-27T18:49:01.218Z,7.11
2023-04-27T18:51:29.184Z,7.06
2023-04-27T18:53:56.405Z,7.03
2023-04-27T18:56:23.444Z,6.99
2023-04-27T18:58:50.354Z,6.94
2023-04-27T19:01:24.858Z,6.88
2023-04-27T19:03:52.179Z,6.83
2023-04-27T19:06:21.133Z,6.77
2023-04-27T19:08:48.130Z,6.74
2023-04-27T19:11:14.872Z,6.73
2023-04-27T19:13:43.702Z,6.71
2023-04-27T19:16:11.071Z,6.64
2023-04-27T19:18:38.211Z,6.60
2023-04-27T19:21:04.903Z,6.51
2023-04-27T19:23:31.534Z,6.46
2023-04-27T19:26:09.534Z,6.41
2023-04-27T19:28:39.369Z,6.33
2023-04-27T19:31:07.047Z,6.27
2023-04-27T19:33:33.843Z,6.22
2023-04-27T19:36:00.579Z,6.16
2023-04-27T19:38:27.201Z,6.12
2023-04-27T19:40:53.878Z,6.09
2023-04-27T19:43:20.971Z,6.06
2023-04-27T19:45:49.272Z,6.02
2023-04-27T19:48:16.187Z,5.99
2023-04-27T19:50:43.749Z,5.94
2023-04-27T19:53:11.218Z,5.91
2023-04-27T19:55:38.007Z,5.90
2023-04-27T19:58:04.933Z,5.86
2023-04-27T20:00:33.364Z,5.83
2023-04-27T20:03:00.153Z,5.80
2023-04-27T20:05:27.188Z,5.79
2023-04-27T20:07:53.976Z,5.76
2023-04-27T20:10:21.475Z,5.75
2023-04-27T20:12:56.201Z,5.73
2023-04-27T20:15:24.074Z,5.72
2023-04-27T20:17:50.967Z,5.69
2023-04-27T20:20:18.224Z,5.69
2023-04-27T20:22:45.595Z,5.69
2023-04-27T20:25:14.023Z,5.67
2023-04-27T20:27:41.254Z,5.67
2023-04-27T20:30:08.566Z,5.65
2023-04-27T20:32:36.308Z,5.60
2023-04-27T20:35:04.943Z,5.55
2023-04-27T20:37:32.442Z,5.51
2023-04-27T20:39:59.485Z,5.48
2023-04-27T20:42:26.273Z,5.46
2023-04-27T20:44:55.055Z,5.45
2023-04-27T20:47:22.027Z,5.41
2023-04-27T20:49:48.929Z,5.37
2023-04-27T20:52:15.803Z,5.34
2023-04-27T20:54:42.481Z,5.33
2023-04-27T20:57:13.505Z,5.34
2023-04-27T20:59:41.160Z,5.34
2023-04-27T21:02:08.390Z,5.33
2023-04-27T21:04:35.309Z,5.32
2023-04-27T21:07:02.060Z,5.31
2023-04-27T21:09:28.735Z,5.30
2023-04-27T21:11:55.440Z,5.30
2023-04-27T21:14:22.104Z,5.28
2023-04-27T21:16:48.882Z,5.26
2023-04-27T21:19:16.642Z,5.30
2023-04-27T21:21:43.482Z,5.32
2023-04-27T21:24:10.336Z,5.35
2023-04-27T21:26:37.199Z,5.36
2023-04-27T21:29:05.958Z,5.35
2023-04-27T21:31:33.566Z,5.30
2023-04-27T21:34:00.846Z,5.21
2023-04-27T21:36:27.631Z,5.16
2023-04-27T21:38:54.582Z,5.13
2023-04-27T21:41:21.245Z,5.07
2023-04-27T21:43:47.950Z,5.03
2023-04-27T21:46:14.587Z,5.06
2023-04-27T21:48:41.253Z,5.13
2023-04-27T21:51:07.947Z,5.18
2023-04-27T21:53:34.656Z,5.21
2023-04-27T21:56:01.268Z,5.25
2023-04-27T21:58:28.501Z,5.29
2023-04-27T22:00:55.141Z,5.29
2023-04-27T22:03:22.752Z,5.28
2023-04-27T22:05:50.354Z,5.26
2023-04-27T22:08:17.557Z,5.23
2023-04-27T22:10:44.932Z,5.22
2023-04-27T22:15:41.481Z,5.05
2023-04-27T22:18:08.255Z,5.04
2023-04-27T22:20:35.102Z,5.02
2023-04-27T22:23:01.866Z,4.95
2023-04-27T22:25:28.608Z,4.89
2023-04-27T22:27:55.294Z,4.84
2023-04-27T22:30:21.948Z,4.77
2023-04-27T22:32:48.905Z,4.78
2023-04-27T22:35:25.393Z,4.83
2023-04-27T22:37:53.701Z,4.85
2023-04-27T22:40:20.385Z,4.90
2023-04-27T22:42:47.030Z,4.96
2023-04-27T22:45:13.725Z,4.91
2023-04-27T22:47:41.444Z,4.86
2023-04-27T22:50:09.153Z,4.88
2023-04-27T22:52:37.291Z,4.95
2023-04-27T22:55:04.676Z,5.03
2023-04-27T22:57:31.530Z,5.06
2023-04-27T22:59:58.127Z,5.07
2023-04-27T23:02:24.845Z,5.02
2023-04-27T23:04:51.644Z,4.95
2023-04-27T23:07:18.500Z,4.93
2023-04-27T23:09:45.928Z,4.98
2023-04-27T23:12:12.654Z,5.04
2023-04-27T23:14:41.933Z,5.09
2023-04-27T23:17:10.275Z,5.05
2023-04-27T23:19:36.970Z,5.01
2023-04-27T23:22:03.852Z,5.03
2023-04-27T23:24:30.612Z,5.05
2023-04-27T23:26:57.662Z,5.02
2023-04-27T23:29:25.382Z,5.03
2023-04-27T23:31:52.180Z,5.06
2023-04-27T23:34:18.916Z,5.05
2023-04-27T23:36:45.672Z,5.05
2023-04-27T23:39:12.402Z,5.05
2023-04-27T23:41:39.030Z,5.03
2023-04-27T23:44:05.641Z,5.01
2023-04-27T23:46:32.311Z,4.98
2023-04-27T23:48:58.979Z,4.95
2023-04-27T23:51:25.644Z,4.93
2023-04-27T23:53:52.256Z,4.91
2023-04-27T23:56:19.659Z,4.93
2023-04-27T23:58:46.368Z,4.94
